Atyrau, Kazakhstan
Current Conditions -  °F | °C
As of 1:30 PM on Friday 24 Oct 2014 (Local Time) from UATG Reporting Station
Clear Clear  
Wind Chill: -6°   Ceiling: Unl
Heat Index:   Visibility: 6mi
Dew Point: -7°   Wind: 18mph
Humidity: 60%   Direction: 360°N
Pressure: 30.18"   Gusts: NA
Location:  47.12°N, 51.88°E
Report Text: UATG 240930Z 36008MPS CAVOK 00/M07 Q1022 R32/CLRD70 NOSIG RMKQFE769/1025
Loading
Personal Weather Stations






























Interactive Weather Map
Tropical Storm Tracking
New forecast layout! Learn more

10-Day Weather Forecast

Advertisements
Track Severe Weather on mobile